createdAt,value
2023-05-24T00:00:35.015Z,97487.47
2023-05-24T00:04:37.682Z,97480.25
2023-05-24T00:08:40.365Z,97475.03
2023-05-24T00:12:43.036Z,97484.72
2023-05-24T00:16:47.412Z,97479.16
2023-05-24T00:20:51.858Z,97474.00
2023-05-24T00:24:54.597Z,97474.69
2023-05-24T00:28:57.233Z,97473.72
2023-05-24T00:33:01.374Z,97475.50
2023-05-24T00:37:04.096Z,97474.91
2023-05-24T00:41:06.809Z,97477.00
2023-05-24T00:45:10.580Z,97474.59
2023-05-24T00:49:14.679Z,97479.78
2023-05-24T00:53:17.387Z,97473.97
2023-05-24T00:57:20.259Z,97479.63
2023-05-24T01:01:25.867Z,97490.69
2023-05-24T01:05:29.934Z,97473.69
2023-05-24T01:09:44.145Z,97474.34
2023-05-24T01:13:55.762Z,97481.81
2023-05-24T01:18:05.306Z,97478.50
2023-05-24T01:22:23.857Z,97482.00
2023-05-24T01:26:32.983Z,97475.81
2023-05-24T01:30:37.902Z,97480.44
2023-05-24T01:34:40.550Z,97473.00
2023-05-24T01:38:43.536Z,97470.28
2023-05-24T01:42:50.021Z,97469.91
2023-05-24T01:47:06.060Z,97467.19
2023-05-24T01:51:11.799Z,97466.16
2023-05-24T01:55:18.604Z,97474.88
2023-05-24T01:59:22.966Z,97468.84
2023-05-24T02:03:27.067Z,97471.56
2023-05-24T02:07:29.696Z,97474.31
2023-05-24T02:11:32.336Z,97469.78
2023-05-24T02:15:35.587Z,97474.19
2023-05-24T02:19:39.640Z,97480.81
2023-05-24T02:23:42.396Z,97480.63
2023-05-24T02:27:47.095Z,97479.94
2023-05-24T02:31:52.026Z,97482.91
2023-05-24T02:35:56.053Z,97475.25
2023-05-24T02:39:58.805Z,97484.25
2023-05-24T02:44:01.482Z,97489.28
2023-05-24T02:48:04.403Z,97493.47
2023-05-24T02:52:08.641Z,97496.59
2023-05-24T02:56:11.442Z,97487.44
2023-05-24T03:00:15.207Z,97490.16
2023-05-24T03:04:17.905Z,97488.09
2023-05-24T03:08:21.933Z,97500.81
2023-05-24T03:12:24.596Z,97499.38
2023-05-24T03:16:27.266Z,97507.88
2023-05-24T03:20:29.923Z,97501.47
2023-05-24T03:24:34.788Z,97506.91
2023-05-24T03:28:37.549Z,97520.28
2023-05-24T03:32:40.395Z,97515.53
2023-05-24T03:36:43.330Z,97511.19
2023-05-24T03:40:47.410Z,97518.22
2023-05-24T03:44:50.113Z,97515.50
2023-05-24T03:48:52.939Z,97523.19
2023-05-24T03:52:55.932Z,97524.97
2023-05-24T03:57:00.078Z,97528.22
2023-05-24T04:01:03.441Z,97526.50
2023-05-24T04:05:10.270Z,97520.16
2023-05-24T04:09:12.936Z,97525.09
2023-05-24T04:13:17.046Z,97517.91
2023-05-24T04:17:19.861Z,97510.25
2023-05-24T04:21:22.687Z,97507.81
2023-05-24T04:25:26.834Z,97508.44
2023-05-24T04:29:34.391Z,97517.63
2023-05-24T04:33:37.092Z,97509.50
2023-05-24T04:37:40.429Z,97507.63
2023-05-24T04:41:43.157Z,97511.94
2023-05-24T04:45:47.514Z,97507.72
2023-05-24T04:49:50.965Z,97508.72
2023-05-24T04:53:53.659Z,97507.44
2023-05-24T04:57:57.200Z,97504.25
2023-05-24T05:02:01.370Z,97507.97
2023-05-24T05:06:04.347Z,97521.09
2023-05-24T05:10:08.545Z,97512.66
2023-05-24T05:14:11.688Z,97516.66
2023-05-24T05:18:16.484Z,97524.38
2023-05-24T05:22:19.350Z,97521.44
2023-05-24T05:26:22.353Z,97526.00
2023-05-24T05:30:24.977Z,97521.38
2023-05-24T05:34:29.348Z,97517.59
2023-05-24T05:38:31.974Z,97514.34
2023-05-24T05:42:34.620Z,97516.56
2023-05-24T05:46:37.437Z,97510.25
2023-05-24T05:50:42.564Z,97519.97
2023-05-24T05:54:46.368Z,97508.66
2023-05-24T05:58:49.380Z,97516.19
2023-05-24T06:02:52.155Z,97511.22
2023-05-24T06:06:56.996Z,97516.63
2023-05-24T06:10:59.863Z,97519.34
2023-05-24T06:15:02.528Z,97506.63
2023-05-24T06:19:06.618Z,97514.06
2023-05-24T06:23:10.953Z,97513.97
2023-05-24T06:27:13.775Z,97513.91
2023-05-24T06:31:16.517Z,97517.00
2023-05-24T06:35:19.250Z,97509.84
2023-05-24T06:39:25.218Z,97519.16
2023-05-24T06:43:28.298Z,97524.69
2023-05-24T06:47:31.085Z,97527.03
2023-05-24T06:51:34.549Z,97530.78
2023-05-24T06:55:38.830Z,97530.66
2023-05-24T06:59:41.486Z,97537.75
2023-05-24T07:03:44.209Z,97537.78
2023-05-24T07:07:47.011Z,97541.97
2023-05-24T07:11:51.195Z,97544.19
2023-05-24T07:15:53.917Z,97551.03
2023-05-24T07:19:56.903Z,97551.66
2023-05-24T07:24:00.289Z,97568.44
2023-05-24T07:28:05.269Z,97572.16
2023-05-24T07:32:08.734Z,97563.56
2023-05-24T07:36:12.277Z,97572.50
2023-05-24T07:40:15.106Z,97582.13
2023-05-24T07:44:19.977Z,97579.81
2023-05-24T07:48:22.759Z,97586.06
2023-05-24T07:52:26.281Z,97592.38
2023-05-24T07:56:29.225Z,97575.78
2023-05-24T08:00:33.798Z,97571.13
2023-05-24T08:04:36.650Z,97584.91
2023-05-24T08:08:40.250Z,97581.59
2023-05-24T08:12:43.306Z,97582.25
2023-05-24T08:16:47.361Z,97579.75
2023-05-24T08:20:50.166Z,97582.53
2023-05-24T08:24:53.274Z,97591.63
2023-05-24T08:28:56.054Z,97604.25
2023-05-24T08:33:00.074Z,97600.31
2023-05-24T08:37:03.232Z,97603.78
2023-05-24T08:41:08.095Z,97613.28
2023-05-24T08:45:13.912Z,97603.31
2023-05-24T08:49:19.096Z,97607.09
2023-05-24T08:53:24.249Z,97613.25
2023-05-24T08:57:28.832Z,97611.81
2023-05-24T09:01:33.893Z,97620.50
2023-05-24T09:05:39.202Z,97620.81
2023-05-24T09:09:45.278Z,97607.38
2023-05-24T09:13:49.133Z,97621.16
2023-05-24T09:17:51.833Z,97624.63
2023-05-24T09:21:57.469Z,97626.69
2023-05-24T09:26:07.735Z,97627.44
2023-05-24T09:30:12.716Z,97627.59
2023-05-24T09:34:16.962Z,97625.38
2023-05-24T09:38:21.076Z,97619.94
2023-05-24T09:42:26.595Z,97627.00
2023-05-24T09:46:29.892Z,97604.44
2023-05-24T09:50:33.017Z,97615.19
2023-05-24T09:54:37.543Z,97618.38
2023-05-24T09:58:43.214Z,97609.25
2023-05-24T10:02:53.416Z,97607.44
2023-05-24T10:06:56.969Z,97604.66
2023-05-24T10:11:03.508Z,97604.81
2023-05-24T10:15:08.201Z,97604.53
2023-05-24T10:19:11.826Z,97613.91
2023-05-24T10:23:20.823Z,97604.84
2023-05-24T10:27:28.771Z,97618.44
2023-05-24T10:31:34.585Z,97625.91
2023-05-24T10:35:38.432Z,97625.66
2023-05-24T10:39:42.821Z,97622.38
2023-05-24T10:44:00.693Z,97624.34
2023-05-24T10:48:38.225Z,97620.88
2023-05-24T10:52:41.707Z,97622.94
2023-05-24T10:56:48.847Z,97614.38
2023-05-24T11:00:53.851Z,97606.59
2023-05-24T11:04:56.832Z,97615.22
2023-05-24T11:09:01.989Z,97614.69
2023-05-24T11:13:04.956Z,97615.00
2023-05-24T11:17:09.544Z,97614.25
2023-05-24T11:21:12.634Z,97604.66
2023-05-24T11:25:15.376Z,97612.31
2023-05-24T11:29:20.908Z,97612.53
2023-05-24T11:33:25.519Z,97602.50
2023-05-24T11:37:45.052Z,97602.03
2023-05-24T11:41:48.961Z,97601.72
2023-05-24T11:45:53.017Z,97599.94
2023-05-24T11:49:57.131Z,97591.81
2023-05-24T11:54:00.354Z,97592.44
2023-05-24T11:58:06.211Z,97596.38
2023-05-24T12:02:09.184Z,97586.44
2023-05-24T12:06:13.285Z,97586.25
2023-05-24T12:10:16.380Z,97592.91
2023-05-24T12:14:20.727Z,97580.94
2023-05-24T12:18:24.830Z,97581.06
2023-05-24T12:22:31.921Z,97589.88
2023-05-24T12:26:35.952Z,97583.56
2023-05-24T12:30:43.562Z,97580.38
2023-05-24T12:34:46.430Z,97584.09
2023-05-24T12:38:50.653Z,97580.47
2023-05-24T12:42:55.173Z,97588.28
2023-05-24T12:46:59.088Z,97584.81
2023-05-24T12:51:02.152Z,97598.44
2023-05-24T12:55:07.950Z,97585.72
2023-05-24T12:59:10.602Z,97586.94
2023-05-24T13:03:13.335Z,97570.03
2023-05-24T13:07:16.101Z,97570.84
2023-05-24T13:11:20.145Z,97570.75
2023-05-24T13:15:24.041Z,97575.63
2023-05-24T13:19:26.792Z,97565.19
2023-05-24T13:23:29.848Z,97555.94
2023-05-24T13:27:33.967Z,97560.75
2023-05-24T13:31:37.722Z,97554.00
2023-05-24T13:35:42.058Z,97547.00
2023-05-24T13:39:45.008Z,97545.81
2023-05-24T13:43:50.618Z,97552.22
2023-05-24T13:47:53.688Z,97545.16
2023-05-24T13:51:58.512Z,97542.66
2023-05-24T13:56:02.761Z,97542.13
2023-05-24T14:00:09.306Z,97555.06
2023-05-24T14:04:12.514Z,97552.06
2023-05-24T14:08:15.206Z,97554.34
2023-05-24T14:12:17.868Z,97557.22
2023-05-24T14:16:22.028Z,97556.50
2023-05-24T14:20:24.854Z,97564.41
2023-05-24T14:24:27.661Z,97561.88
2023-05-24T14:28:30.318Z,97563.06
2023-05-24T14:32:34.327Z,97564.41
2023-05-24T14:36:37.577Z,97555.28
2023-05-24T14:40:40.867Z,97546.19
2023-05-24T14:44:43.699Z,97557.16
2023-05-24T14:48:47.774Z,97563.09
2023-05-24T14:52:50.878Z,97553.34
2023-05-24T14:56:54.333Z,97562.59
2023-05-24T15:00:57.071Z,97560.50
2023-05-24T15:05:01.179Z,97556.84
2023-05-24T15:09:04.277Z,97560.94
2023-05-24T15:13:07.156Z,97552.84
2023-05-24T15:17:10.831Z,97562.94
2023-05-24T15:21:14.808Z,97559.50
2023-05-24T15:25:17.822Z,97564.72
2023-05-24T15:29:21.531Z,97562.66
2023-05-24T15:33:24.285Z,97560.88
2023-05-24T15:37:28.567Z,97557.63
2023-05-24T15:41:31.237Z,97556.66
2023-05-24T15:45:33.895Z,97554.81
2023-05-24T15:49:36.579Z,97550.91
2023-05-24T15:53:40.777Z,97549.81
2023-05-24T15:57:43.500Z,97555.38
2023-05-24T16:01:46.135Z,97547.09
2023-05-24T16:05:49.493Z,97543.69
2023-05-24T16:09:54.125Z,97555.28
2023-05-24T16:13:57.342Z,97552.59
2023-05-24T16:17:59.988Z,97544.63
2023-05-24T16:22:03.063Z,97539.63
2023-05-24T16:26:07.155Z,97540.41
2023-05-24T16:30:10.551Z,97542.06
2023-05-24T16:34:13.201Z,97543.31
2023-05-24T16:38:15.964Z,97547.34
2023-05-24T16:42:19.954Z,97546.78
2023-05-24T16:46:23.953Z,97548.00
2023-05-24T16:50:27.066Z,97543.94
2023-05-24T16:54:29.772Z,97542.50
2023-05-24T16:58:33.797Z,97543.44
2023-05-24T17:02:36.524Z,97543.66
2023-05-24T17:06:39.293Z,97550.31
2023-05-24T17:10:43.596Z,97547.03
2023-05-24T17:14:47.771Z,97547.50
2023-05-24T17:18:51.062Z,97551.09
2023-05-24T17:22:55.705Z,97545.84
2023-05-24T17:26:58.350Z,97557.56
2023-05-24T17:31:04.202Z,97563.78
2023-05-24T17:35:07.149Z,97565.50
2023-05-24T17:39:09.892Z,97566.91
2023-05-24T17:43:12.916Z,97568.28
2023-05-24T17:47:16.941Z,97564.06
2023-05-24T17:51:20.032Z,97563.94
2023-05-24T17:55:23.102Z,97577.28
2023-05-24T17:59:25.775Z,97575.31
2023-05-24T18:03:29.747Z,97572.34
2023-05-24T18:07:32.412Z,97583.88
2023-05-24T18:11:35.175Z,97583.25
2023-05-24T18:15:37.891Z,97578.03
2023-05-24T18:19:42.006Z,97592.84
2023-05-24T18:23:44.669Z,97591.53
2023-05-24T18:27:47.650Z,97594.03
2023-05-24T18:31:50.406Z,97594.97
2023-05-24T18:35:54.501Z,97595.69
2023-05-24T18:39:58.780Z,97597.84
2023-05-24T18:44:01.411Z,97606.22
2023-05-24T18:48:04.247Z,97621.00
2023-05-24T18:52:08.307Z,97621.44
2023-05-24T18:56:11.057Z,97625.66
2023-05-24T19:00:14.605Z,97628.88
2023-05-24T19:04:17.266Z,97636.13
2023-05-24T19:08:21.460Z,97639.56
2023-05-24T19:12:24.269Z,97637.63
2023-05-24T19:16:26.957Z,97640.63
2023-05-24T19:20:29.720Z,97642.47
2023-05-24T19:24:34.004Z,97650.78
2023-05-24T19:28:40.176Z,97652.59
2023-05-24T19:32:43.145Z,97656.56
2023-05-24T19:36:46.117Z,97649.94
2023-05-24T19:40:50.199Z,97648.53
2023-05-24T19:44:53.205Z,97655.75
2023-05-24T19:48:56.098Z,97666.28
2023-05-24T19:52:58.775Z,97662.84
2023-05-24T19:57:03.100Z,97667.06
2023-05-24T20:01:06.336Z,97667.09
2023-05-24T20:05:10.013Z,97674.69
2023-05-24T20:09:12.796Z,97673.72
2023-05-24T20:13:16.810Z,97684.28
2023-05-24T20:17:19.487Z,97683.16
2023-05-24T20:21:22.161Z,97679.09
2023-05-24T20:25:25.297Z,97674.16
2023-05-24T20:29:29.322Z,97681.69
2023-05-24T20:33:33.491Z,97684.41
2023-05-24T20:37:36.298Z,97682.50
2023-05-24T20:41:38.967Z,97669.03
2023-05-24T20:45:43.296Z,97666.16
2023-05-24T20:49:46.248Z,97666.38
2023-05-24T20:53:51.686Z,97658.25
2023-05-24T20:57:54.343Z,97668.47
2023-05-24T21:01:58.322Z,97673.53
2023-05-24T21:06:01.020Z,97666.47
2023-05-24T21:10:04.006Z,97667.94
2023-05-24T21:14:06.629Z,97672.97
2023-05-24T21:18:10.635Z,97682.56
2023-05-24T21:22:13.252Z,97688.19
2023-05-24T21:26:15.923Z,97687.81
2023-05-24T21:30:18.546Z,97692.00
2023-05-24T21:34:22.484Z,97696.38
2023-05-24T21:38:25.285Z,97706.34
2023-05-24T21:42:27.956Z,97709.91
2023-05-24T21:46:33.997Z,97713.44
2023-05-24T21:50:37.950Z,97708.88
2023-05-24T21:54:40.589Z,97714.91
2023-05-24T21:58:43.276Z,97716.38
2023-05-24T22:02:45.938Z,97712.44
2023-05-24T22:06:50.043Z,97712.22
2023-05-24T22:10:52.711Z,97715.13
2023-05-24T22:14:55.472Z,97719.31
2023-05-24T22:19:01.112Z,97728.25
2023-05-24T22:23:05.406Z,97718.06
2023-05-24T22:27:13.812Z,97719.09
2023-05-24T22:31:16.693Z,97722.00
2023-05-24T22:35:20.376Z,97721.19
2023-05-24T22:39:24.516Z,97718.84
2023-05-24T22:43:27.805Z,97718.25
2023-05-24T22:47:33.433Z,97730.97
2023-05-24T22:51:37.688Z,97727.22
2023-05-24T22:55:41.700Z,97734.31
2023-05-24T22:59:45.920Z,97739.72
2023-05-24T23:03:48.528Z,97738.91
2023-05-24T23:07:51.892Z,97734.94
2023-05-24T23:11:58.098Z,97737.44
2023-05-24T23:16:00.871Z,97738.06
2023-05-24T23:20:03.968Z,97726.41
2023-05-24T23:24:09.562Z,97724.94
2023-05-24T23:28:13.544Z,97741.38
2023-05-24T23:32:16.194Z,97729.91
2023-05-24T23:36:18.860Z,97735.75
2023-05-24T23:40:21.614Z,97730.34
2023-05-24T23:44:25.912Z,97740.53
2023-05-24T23:48:28.895Z,97742.63
2023-05-24T23:52:31.511Z,97726.78
2023-05-24T23:56:34.210Z,97729.28
